Time;durP1;ratioP1;P1;durP2;ratioP2;P2;SDS_P1;SDS_P2;PMS_P1;PMS_P2;Temp;Humidity;BMP_temperature;BMP_pressure;BME280_temperature;BME280_humidity;BME280_pressure;Samples;Min_cycle;Max_cycle;Signal;HPM_P1;HPM_P2
2022/08/29 00:00:37;;;;;;;10.85;4.30;;;16.90;99.90;;;;;;5095708;28;20024;-91
2022/08/29 00:03:05;;;;;;;8.52;4.97;;;16.90;99.90;;;;;;5096399;28;20013;-88
2022/08/29 00:05:33;;;;;;;13.50;4.47;;;16.90;99.90;;;;;;5092647;28;20450;-93
2022/08/29 00:08:00;;;;;;;13.50;5.30;;;16.90;99.90;;;;;;5090957;28;20039;-91
2022/08/29 00:10:27;;;;;;;11.75;4.47;;;16.90;99.90;;;;;;5092211;28;20048;-91
2022/08/29 00:12:53;;;;;;;13.75;4.88;;;16.90;99.90;;;;;;5095262;28;20028;-91
2022/08/29 00:15:20;;;;;;;16.88;5.10;;;16.90;99.90;;;;;;5095679;28;20044;-92
2022/08/29 00:17:46;;;;;;;16.27;6.30;;;16.90;99.90;;;;;;5089474;28;20009;-90
2022/08/29 00:20:16;;;;;;;14.27;6.00;;;16.90;99.90;;;;;;5095103;28;20009;-91
2022/08/29 00:22:43;;;;;;;17.05;5.78;;;16.90;99.90;;;;;;5095636;28;20016;-91
2022/08/29 00:25:12;;;;;;;14.88;5.90;;;16.90;99.90;;;;;;5095352;28;20028;-95
2022/08/29 00:27:37;;;;;;;11.30;6.30;;;16.90;99.90;;;;;;5095179;28;20008;-89
2022/08/29 00:30:04;;;;;;;20.55;7.47;;;16.90;99.90;;;;;;5095136;28;20038;-89
2022/08/29 00:32:33;;;;;;;13.05;6.28;;;16.80;99.90;;;;;;5098673;28;20036;-90
2022/08/29 00:35:05;;;;;;;12.57;6.30;;;16.80;99.90;;;;;;5096011;28;20021;-95
2022/08/29 00:37:31;;;;;;;10.50;5.68;;;16.80;99.90;;;;;;5090678;28;20039;-90
2022/08/29 00:39:57;;;;;;;10.48;5.13;;;16.70;99.90;;;;;;5091363;28;20029;-94
2022/08/29 00:42:23;;;;;;;11.40;4.88;;;16.70;99.90;;;;;;5093360;28;20111;-94
2022/08/29 00:44:49;;;;;;;12.90;4.90;;;16.70;99.90;;;;;;5092213;28;20021;-93
2022/08/29 00:47:25;;;;;;;10.18;4.47;;;16.70;99.90;;;;;;5090568;28;20035;-93
2022/08/29 00:49:54;;;;;;;9.10;4.30;;;16.60;99.90;;;;;;5092796;28;20264;-91
2022/08/29 00:52:32;;;;;;;12.55;4.47;;;16.60;99.90;;;;;;5094996;28;20024;-94
2022/08/29 00:55:01;;;;;;;9.70;4.10;;;16.60;99.90;;;;;;5102188;28;20029;-94
2022/08/29 00:57:30;;;;;;;10.15;4.50;;;16.60;99.90;;;;;;5090375;28;20023;-94
2022/08/29 00:59:57;;;;;;;9.65;4.13;;;16.60;99.90;;;;;;5086740;28;20039;-94
2022/08/29 01:02:23;;;;;;;7.85;3.03;;;16.60;99.90;;;;;;5094202;28;20001;-94
2022/08/29 01:04:49;;;;;;;6.43;2.78;;;16.50;99.90;;;;;;5091647;28;20040;-92
2022/08/29 01:07:15;;;;;;;7.25;3.05;;;16.50;99.90;;;;;;5094727;28;20488;-93
2022/08/29 01:09:43;;;;;;;7.60;3.42;;;16.50;99.90;;;;;;5086778;28;20029;-91
2022/08/29 01:12:15;;;;;;;6.63;3.10;;;16.40;99.90;;;;;;5090815;28;20047;-94
2022/08/29 01:14:49;;;;;;;10.30;3.58;;;16.40;99.90;;;;;;5094004;28;21149;-94
2022/08/29 01:17:26;;;;;;;8.85;4.40;;;16.50;99.90;;;;;;5092885;28;20033;-95
2022/08/29 01:19:59;;;;;;;9.70;3.63;;;16.50;99.90;;;;;;5089553;28;20021;-93
2022/08/29 01:22:51;;;;;;;10.50;4.93;;;16.40;99.90;;;;;;5090242;28;20055;-94
2022/08/29 01:25:21;;;;;;;15.40;5.38;;;16.40;99.90;;;;;;5091818;28;20021;-93
2022/08/29 01:27:53;;;;;;;13.73;6.25;;;16.40;99.90;;;;;;5097061;28;20028;-92
2022/08/29 01:30:19;;;;;;;10.00;5.45;;;16.40;99.90;;;;;;5096026;28;20033;-92
2022/08/29 01:32:45;;;;;;;13.55;6.30;;;16.40;99.90;;;;;;5091532;28;20024;-93
2022/08/29 01:35:11;;;;;;;17.23;8.18;;;16.30;99.90;;;;;;5095841;28;20064;-93
2022/08/29 01:37:40;;;;;;;17.08;8.55;;;16.30;99.90;;;;;;5091540;28;20137;-94
2022/08/29 01:40:06;;;;;;;13.73;7.78;;;16.20;99.90;;;;;;5089050;28;20020;-94
2022/08/29 01:42:32;;;;;;;14.20;7.57;;;16.20;99.90;;;;;;5090002;28;20025;-95
2022/08/29 01:44:59;;;;;;;15.13;7.57;;;16.20;99.90;;;;;;5094971;28;20054;-94
2022/08/29 01:47:29;;;;;;;13.90;7.20;;;16.10;99.90;;;;;;5093102;28;20032;-95
2022/08/29 01:49:55;;;;;;;15.90;7.32;;;16.10;99.90;;;;;;5091928;28;20134;-94
2022/08/29 01:52:21;;;;;;;12.80;6.90;;;16.10;99.90;;;;;;5093518;28;20028;-91
2022/08/29 01:54:47;;;;;;;13.73;7.85;;;16.10;99.90;;;;;;5096910;28;20027;-92
2022/08/29 01:57:14;;;;;;;16.23;6.78;;;16.20;99.90;;;;;;5088765;28;20024;-93
2022/08/29 01:59:41;;;;;;;14.80;7.90;;;16.20;99.90;;;;;;5094951;28;20088;-93
2022/08/29 02:02:14;;;;;;;14.18;7.75;;;16.20;99.90;;;;;;5096221;28;20024;-93
2022/08/29 02:04:39;;;;;;;19.15;8.70;;;16.20;99.90;;;;;;5094444;28;20053;-94
2022/08/29 02:07:05;;;;;;;14.35;7.85;;;16.20;99.90;;;;;;5089477;28;20029;-96
2022/08/29 02:09:31;;;;;;;13.88;7.40;;;16.20;99.90;;;;;;5092554;28;20100;-95
2022/08/29 02:12:00;;;;;;;14.43;7.88;;;16.20;99.90;;;;;;5091139;28;20048;-94
2022/08/29 02:14:26;;;;;;;15.07;7.75;;;16.20;99.90;;;;;;5092070;28;20059;-94
2022/08/29 02:16:51;;;;;;;15.10;6.93;;;16.20;99.90;;;;;;5090759;28;20025;-94
2022/08/29 02:19:18;;;;;;;10.60;6.60;;;16.20;99.90;;;;;;5092038;28;20028;-94
2022/08/29 02:21:44;;;;;;;15.52;6.32;;;16.20;99.90;;;;;;5086111;28;20020;-94
2022/08/29 02:24:10;;;;;;;14.10;5.80;;;16.20;99.90;;;;;;5082045;28;20040;-92
2022/08/29 02:26:36;;;;;;;11.20;5.82;;;16.20;99.90;;;;;;5085086;28;20031;-94
2022/08/29 02:29:02;;;;;;;15.43;5.65;;;16.20;99.90;;;;;;5091536;28;20028;-92
2022/08/29 02:31:28;;;;;;;10.10;5.75;;;16.20;99.90;;;;;;5094298;28;20028;-91
2022/08/29 02:33:54;;;;;;;10.65;4.75;;;16.20;99.90;;;;;;5092855;28;20043;-94
2022/08/29 02:36:21;;;;;;;11.00;5.43;;;16.20;99.90;;;;;;5091912;28;20032;-92
2022/08/29 02:38:48;;;;;;;9.80;4.90;;;16.20;99.90;;;;;;5097809;28;20016;-88
2022/08/29 02:41:14;;;;;;;10.43;4.63;;;16.20;99.90;;;;;;5098774;28;20012;-87
2022/08/29 02:43:41;;;;;;;10.10;4.15;;;16.20;99.90;;;;;;5097899;28;20031;-86
2022/08/29 02:46:07;;;;;;;10.85;4.70;;;16.20;99.90;;;;;;5097626;28;20020;-86
2022/08/29 02:48:32;;;;;;;10.27;4.20;;;16.20;99.90;;;;;;5097829;28;20021;-86
2022/08/29 02:50:58;;;;;;;11.90;4.72;;;16.20;99.90;;;;;;5097609;28;20044;-89
2022/08/29 02:53:26;;;;;;;9.27;3.60;;;16.10;99.90;;;;;;5096682;28;20024;-92
2022/08/29 02:55:53;;;;;;;11.30;3.97;;;16.10;99.90;;;;;;5096100;28;20529;-92
2022/08/29 02:58:20;;;;;;;7.93;3.50;;;16.20;99.90;;;;;;5096919;28;20030;-91
2022/08/29 03:00:46;;;;;;;8.73;3.30;;;16.20;99.90;;;;;;5097138;28;20047;-89
2022/08/29 03:03:12;;;;;;;6.68;3.50;;;16.20;99.90;;;;;;5097315;28;20020;-93
2022/08/29 03:05:38;;;;;;;10.45;3.33;;;16.20;99.90;;;;;;5097337;28;20036;-93
2022/08/29 03:08:07;;;;;;;6.05;3.58;;;16.20;99.90;;;;;;5096549;28;20024;-93
2022/08/29 03:10:34;;;;;;;8.93;4.07;;;16.20;99.90;;;;;;5097320;28;20136;-91
2022/08/29 03:13:00;;;;;;;5.13;3.28;;;16.20;99.90;;;;;;5097255;28;20092;-87
2022/08/29 03:15:26;;;;;;;15.48;5.05;;;16.10;99.90;;;;;;5097069;28;20013;-89
2022/08/29 03:17:52;;;;;;;7.78;4.60;;;16.10;99.90;;;;;;5097125;28;20028;-89
2022/08/29 03:20:19;;;;;;;10.55;4.75;;;16.10;99.90;;;;;;5096656;28;20012;-91
2022/08/29 03:22:45;;;;;;;10.05;5.57;;;16.20;99.90;;;;;;5097173;28;20053;-92
2022/08/29 03:25:12;;;;;;;13.20;4.95;;;16.10;99.90;;;;;;5096463;28;20020;-91
2022/08/29 03:27:39;;;;;;;10.18;5.43;;;16.10;99.90;;;;;;5095855;28;20032;-89
2022/08/29 03:30:06;;;;;;;11.80;5.50;;;16.10;99.90;;;;;;5096138;28;20021;-89
2022/08/29 03:32:32;;;;;;;8.80;5.18;;;16.10;99.90;;;;;;5095051;28;20009;-90
2022/08/29 03:34:58;;;;;;;12.48;5.82;;;16.10;99.90;;;;;;5096214;28;20044;-90
2022/08/29 03:37:26;;;;;;;15.48;6.88;;;16.00;99.90;;;;;;5095189;28;20013;-93
2022/08/29 03:39:52;;;;;;;14.13;6.13;;;16.00;99.90;;;;;;5094196;28;20050;-89
2022/08/29 03:42:18;;;;;;;13.50;6.78;;;16.00;99.90;;;;;;5095729;28;20080;-87
2022/08/29 03:44:43;;;;;;;14.45;6.63;;;16.00;99.90;;;;;;5096269;28;20043;-91
2022/08/29 03:47:09;;;;;;;11.52;6.50;;;16.00;99.90;;;;;;5096323;28;20017;-93
2022/08/29 03:49:35;;;;;;;14.13;6.85;;;16.00;99.90;;;;;;5092812;28;20033;-92
2022/08/29 03:52:01;;;;;;;12.40;8.35;;;16.00;99.90;;;;;;5091968;28;20039;-93
2022/08/29 03:54:27;;;;;;;15.23;8.38;;;16.00;99.90;;;;;;5093198;28;20040;-93
2022/08/29 03:56:54;;;;;;;17.35;9.23;;;16.10;99.90;;;;;;5093322;28;20036;-92
2022/08/29 03:59:20;;;;;;;17.30;9.18;;;16.00;99.90;;;;;;5093881;28;20013;-90
2022/08/29 04:01:47;;;;;;;17.80;10.98;;;16.00;99.90;;;;;;5095318;28;20036;-93
2022/08/29 04:07:02;;;;;;;20.65;11.48;;;16.00;99.90;;;;;;5086882;28;20101;-91
2022/08/29 04:09:28;;;;;;;16.02;10.55;;;16.00;99.90;;;;;;5080864;28;20122;-93
2022/08/29 04:11:54;;;;;;;18.85;11.45;;;16.00;99.90;;;;;;5080759;28;20044;-94
2022/08/29 04:14:20;;;;;;;21.38;11.98;;;16.00;99.90;;;;;;5082568;28;20033;-93
2022/08/29 04:16:48;;;;;;;22.88;13.20;;;16.10;99.90;;;;;;5084077;28;20051;-94
2022/08/29 04:19:18;;;;;;;17.27;11.70;;;16.10;99.90;;;;;;5089378;28;20111;-95
2022/08/29 04:21:44;;;;;;;15.82;11.60;;;16.10;99.90;;;;;;5093354;28;20031;-94
2022/08/29 04:24:11;;;;;;;17.00;12.52;;;16.20;99.90;;;;;;5094019;28;20025;-94
2022/08/29 04:26:39;;;;;;;22.08;13.57;;;16.20;99.90;;;;;;5091049;28;20029;-90
2022/08/29 04:29:08;;;;;;;22.95;12.88;;;16.10;99.90;;;;;;5096049;28;20127;-96
2022/08/29 04:31:35;;;;;;;21.13;13.75;;;16.10;99.90;;;;;;5098877;28;20043;-92
2022/08/29 04:34:01;;;;;;;23.30;15.27;;;16.10;99.90;;;;;;5100290;28;20024;-90
2022/08/29 04:36:27;;;;;;;22.98;15.93;;;16.10;99.90;;;;;;5100626;28;20051;-91
2022/08/29 04:38:53;;;;;;;19.77;16.70;;;16.10;99.90;;;;;;5099702;28;20009;-92
2022/08/29 04:41:20;;;;;;;20.17;16.05;;;16.00;99.90;;;;;;5100315;28;20027;-93
2022/08/29 04:43:47;;;;;;;25.13;16.58;;;16.00;99.90;;;;;;5100298;28;20088;-90
2022/08/29 04:46:14;;;;;;;21.20;16.30;;;16.00;99.90;;;;;;5097970;28;20025;-94
2022/08/29 04:48:39;;;;;;;22.45;16.70;;;16.00;99.90;;;;;;5099093;28;20024;-92
2022/08/29 04:51:05;;;;;;;24.42;16.08;;;16.00;99.90;;;;;;5098840;28;20021;-93
2022/08/29 04:53:31;;;;;;;22.05;16.60;;;16.00;99.90;;;;;;5100091;28;20112;-89
2022/08/29 04:56:08;;;;;;;23.48;16.60;;;15.90;99.90;;;;;;5099857;28;20017;-92
2022/08/29 04:58:37;;;;;;;19.35;14.50;;;15.90;99.90;;;;;;5099548;28;20049;-89
2022/08/29 05:01:04;;;;;;;17.98;14.00;;;15.90;99.90;;;;;;5098384;28;20017;-90
2022/08/29 05:03:31;;;;;;;19.40;14.43;;;15.90;99.90;;;;;;5099882;28;20076;-89
2022/08/29 05:06:06;;;;;;;19.17;13.70;;;15.90;99.90;;;;;;5097197;28;20029;-95
2022/08/29 05:08:34;;;;;;;18.00;14.35;;;15.80;99.90;;;;;;5099869;28;20012;-91
2022/08/29 05:11:00;;;;;;;21.95;14.18;;;15.90;99.90;;;;;;5099476;28;20059;-93
2022/08/29 05:13:27;;;;;;;24.65;12.93;;;15.80;99.90;;;;;;5099345;28;20072;-94
2022/08/29 05:15:53;;;;;;;20.40;13.52;;;15.80;99.90;;;;;;5098749;28;20012;-94
2022/08/29 05:18:19;;;;;;;22.20;13.80;;;15.80;99.90;;;;;;5098226;28;20095;-90
2022/08/29 05:20:47;;;;;;;19.95;14.25;;;15.80;99.90;;;;;;5098347;28;20009;-89
2022/08/29 05:23:15;;;;;;;16.42;12.35;;;15.80;99.90;;;;;;5099566;28;20046;-89
2022/08/29 05:25:41;;;;;;;18.98;14.73;;;15.80;99.90;;;;;;5096477;28;20021;-95
2022/08/29 05:28:10;;;;;;;17.70;13.48;;;15.80;99.90;;;;;;5091684;28;20024;-94
2022/08/29 05:30:38;;;;;;;23.13;14.43;;;15.80;99.90;;;;;;5097251;28;20017;-93
2022/08/29 05:33:04;;;;;;;16.40;13.05;;;15.70;99.90;;;;;;5098130;28;20040;-90
2022/08/29 05:35:31;;;;;;;18.45;12.38;;;15.70;99.90;;;;;;5098077;28;20009;-93
2022/08/29 05:37:56;;;;;;;17.85;12.68;;;15.70;99.90;;;;;;5090393;28;20153;-95
2022/08/29 05:40:22;;;;;;;15.68;12.43;;;15.70;99.90;;;;;;5085197;28;20021;-95
2022/08/29 05:42:48;;;;;;;17.70;12.00;;;15.70;99.90;;;;;;5087428;28;20036;-94
2022/08/29 05:45:14;;;;;;;14.80;11.57;;;15.70;99.90;;;;;;5091188;28;20016;-94
2022/08/29 05:47:40;;;;;;;16.30;12.10;;;15.70;99.90;;;;;;5079159;28;20013;-92
2022/08/29 05:50:06;;;;;;;12.88;9.82;;;15.70;99.90;;;;;;5096552;28;20028;-92
2022/08/29 05:52:32;;;;;;;17.25;10.63;;;15.60;99.90;;;;;;5098290;28;20163;-91
2022/08/29 05:54:59;;;;;;;12.43;10.07;;;15.60;99.90;;;;;;5098674;28;20068;-88
2022/08/29 05:57:26;;;;;;;16.15;11.00;;;15.60;99.90;;;;;;5098710;28;20024;-94
2022/08/29 05:59:52;;;;;;;17.02;11.48;;;15.60;99.90;;;;;;5094204;28;20052;-94
2022/08/29 06:02:20;;;;;;;12.80;10.60;;;15.60;99.90;;;;;;5098204;28;20024;-89
2022/08/29 06:04:46;;;;;;;16.58;11.98;;;15.60;99.90;;;;;;5098216;28;20017;-90
2022/08/29 06:07:13;;;;;;;17.60;11.57;;;15.60;99.90;;;;;;5098002;28;20016;-90
2022/08/29 06:09:40;;;;;;;15.75;12.13;;;15.60;99.90;;;;;;5097955;28;20013;-88
2022/08/29 06:12:08;;;;;;;13.55;11.77;;;15.60;99.90;;;;;;5097409;28;20033;-90
2022/08/29 06:14:34;;;;;;;15.23;11.82;;;15.60;99.90;;;;;;5098022;28;20017;-90
2022/08/29 06:17:01;;;;;;;19.65;10.55;;;15.60;99.90;;;;;;5097399;28;20084;-90
2022/08/29 06:19:30;;;;;;;15.60;10.43;;;15.70;99.90;;;;;;5097611;28;20039;-90
2022/08/29 06:21:56;;;;;;;13.38;10.50;;;15.70;99.90;;;;;;5097467;28;20027;-90
2022/08/29 06:24:21;;;;;;;13.40;8.90;;;15.60;99.90;;;;;;5097538;28;20040;-89
2022/08/29 06:26:47;;;;;;;16.77;9.15;;;15.70;99.90;;;;;;5097494;28;20032;-91
2022/08/29 06:29:14;;;;;;;14.80;8.18;;;15.70;99.90;;;;;;5097428;28;20008;-89
2022/08/29 06:31:41;;;;;;;8.70;5.90;;;15.70;99.90;;;;;;5097687;28;20104;-88
2022/08/29 06:34:08;;;;;;;9.27;6.15;;;15.70;99.90;;;;;;5097178;28;20021;-90
2022/08/29 06:36:35;;;;;;;8.38;6.35;;;15.70;99.90;;;;;;5097439;28;20015;-90
2022/08/29 06:39:05;;;;;;;11.68;5.95;;;15.70;99.90;;;;;;5097089;28;20017;-90
2022/08/29 06:41:31;;;;;;;9.88;5.18;;;15.70;99.90;;;;;;5103309;28;20021;-91
2022/08/29 06:43:58;;;;;;;8.43;4.50;;;15.70;99.90;;;;;;5096905;28;20024;-89
2022/08/29 06:46:30;;;;;;;12.25;5.13;;;15.70;99.90;;;;;;5096643;28;20029;-88
2022/08/29 06:48:58;;;;;;;7.30;4.20;;;15.80;99.90;;;;;;5103227;28;20047;-89
2022/08/29 06:51:25;;;;;;;12.43;4.40;;;15.80;99.90;;;;;;5096847;28;20028;-91
2022/08/29 06:53:52;;;;;;;9.23;3.92;;;15.80;99.90;;;;;;5096241;28;20044;-90
2022/08/29 06:56:18;;;;;;;9.43;3.78;;;15.90;99.90;;;;;;5097038;28;20016;-89
2022/08/29 06:58:47;;;;;;;6.78;3.63;;;15.90;99.90;;;;;;5109367;28;20045;-89
2022/08/29 07:01:18;;;;;;;9.50;3.50;;;15.90;99.90;;;;;;5117409;28;20032;-91
2022/08/29 07:03:44;;;;;;;6.63;3.08;;;15.90;99.90;;;;;;5117839;28;20079;-89
2022/08/29 07:06:11;;;;;;;5.10;2.85;;;15.90;99.90;;;;;;5117907;28;20053;-90
2022/08/29 07:08:36;;;;;;;5.00;2.75;;;15.90;99.90;;;;;;5117859;28;20036;-94
2022/08/29 07:11:46;;;;;;;5.60;2.72;;;16.00;99.90;;;;;;5117122;28;20115;-89
2022/08/29 07:14:12;;;;;;;8.00;3.00;;;16.00;99.90;;;;;;5117471;28;20054;-88
2022/08/29 07:16:39;;;;;;;4.22;3.00;;;16.00;99.90;;;;;;5118502;28;20020;-89
2022/08/29 07:19:06;;;;;;;4.63;2.95;;;16.00;99.90;;;;;;5100331;28;20092;-87
2022/08/29 07:21:32;;;;;;;4.32;2.75;;;16.10;99.90;;;;;;5117213;28;20058;-89
2022/08/29 07:23:58;;;;;;;5.13;2.47;;;16.10;99.90;;;;;;5117546;28;20034;-89
2022/08/29 07:26:28;;;;;;;7.05;2.15;;;16.10;99.90;;;;;;5117760;28;20012;-89
2022/08/29 07:28:57;;;;;;;6.63;2.10;;;16.10;99.90;;;;;;5114139;28;20110;-94
2022/08/29 07:31:23;;;;;;;3.60;1.80;;;16.20;99.90;;;;;;5100257;28;20031;-95
2022/08/29 07:33:49;;;;;;;3.33;1.85;;;16.20;99.90;;;;;;5103619;28;20056;-93
2022/08/29 07:36:14;;;;;;;5.10;2.08;;;16.20;99.90;;;;;;5104479;28;20027;-93
2022/08/29 07:38:40;;;;;;;5.00;1.90;;;16.20;99.90;;;;;;5110195;28;20058;-93
2022/08/29 07:41:10;;;;;;;4.00;1.90;;;16.30;99.90;;;;;;5107801;28;20016;-94
2022/08/29 07:43:36;;;;;;;2.53;1.65;;;16.30;99.90;;;;;;5108423;28;20042;-94
2022/08/29 07:46:07;;;;;;;6.13;1.67;;;16.30;99.90;;;;;;5080344;28;20021;-94
2022/08/29 07:48:33;;;;;;;6.03;2.00;;;16.40;99.90;;;;;;5081067;28;20111;-95
2022/08/29 07:50:59;;;;;;;3.28;2.20;;;16.40;99.90;;;;;;5084643;28;20074;-93
2022/08/29 07:53:28;;;;;;;2.70;1.67;;;16.40;99.90;;;;;;5079496;28;20124;-95
2022/08/29 07:55:53;;;;;;;4.72;1.92;;;16.50;99.90;;;;;;5076387;28;20028;-95
2022/08/29 07:58:19;;;;;;;6.45;1.92;;;16.50;99.90;;;;;;5075819;28;20539;-94
2022/08/29 08:00:45;;;;;;;5.40;1.92;;;16.50;99.90;;;;;;5080201;28;20033;-94
2022/08/29 08:03:13;;;;;;;4.40;1.83;;;16.50;99.90;;;;;;5081750;28;20059;-92
2022/08/29 08:05:38;;;;;;;2.45;1.70;;;16.50;99.90;;;;;;5083236;28;20017;-94
2022/08/29 08:08:04;;;;;;;2.63;1.60;;;16.60;99.90;;;;;;5081881;28;20032;-92
2022/08/29 08:10:30;;;;;;;4.95;2.00;;;16.60;99.90;;;;;;5087562;28;20048;-93
2022/08/29 08:12:55;;;;;;;3.72;1.90;;;16.70;99.90;;;;;;5077323;28;20041;-93
2022/08/29 08:15:21;;;;;;;6.30;1.80;;;16.70;99.90;;;;;;5075528;28;20036;-95
2022/08/29 08:17:55;;;;;;;5.45;1.83;;;16.80;99.90;;;;;;5081877;28;20033;-95
2022/08/29 08:20:21;;;;;;;2.72;1.60;;;16.80;99.90;;;;;;5077187;28;20025;-93
2022/08/29 08:22:47;;;;;;;3.38;1.58;;;16.80;99.90;;;;;;5076084;28;20044;-93
2022/08/29 08:25:13;;;;;;;2.95;1.50;;;16.80;99.90;;;;;;5078319;28;20122;-94
2022/08/29 08:27:39;;;;;;;4.07;1.40;;;16.80;99.90;;;;;;5083270;28;20009;-93
2022/08/29 08:30:06;;;;;;;3.92;1.80;;;16.80;99.90;;;;;;5081368;28;20063;-95
2022/08/29 08:32:31;;;;;;;6.00;1.90;;;16.70;99.90;;;;;;5084948;28;20059;-93
2022/08/29 08:34:58;;;;;;;3.80;1.70;;;16.70;99.90;;;;;;5085841;28;20024;-90
2022/08/29 08:37:24;;;;;;;6.03;1.80;;;16.70;99.90;;;;;;5091197;28;20100;-92
2022/08/29 08:39:49;;;;;;;5.60;1.80;;;16.70;99.90;;;;;;5092526;28;20138;-91
2022/08/29 08:42:19;;;;;;;5.10;1.90;;;16.70;99.90;;;;;;5087389;28;20044;-94
2022/08/29 08:45:02;;;;;;;3.60;1.73;;;16.70;99.90;;;;;;5081387;28;20095;-94
2022/08/29 08:47:38;;;;;;;5.22;1.70;;;16.70;99.90;;;;;;5102185;28;20033;-94
2022/08/29 08:50:33;;;;;;;2.35;1.80;;;16.60;99.90;;;;;;5088221;28;20020;-94
2022/08/29 08:53:09;;;;;;;4.38;1.40;;;16.60;99.90;;;;;;5044363;28;20124;-92
2022/08/29 08:55:50;;;;;;;6.63;1.75;;;16.60;99.90;;;;;;5096305;28;20005;-90
2022/08/29 08:58:56;;;;;;;3.70;1.80;;;16.60;99.90;;;;;;5101463;28;20024;-91
2022/08/29 09:01:33;;;;;;;3.35;1.55;;;16.60;99.90;;;;;;5094843;28;20107;-90
2022/08/29 09:04:10;;;;;;;5.85;2.08;;;16.60;99.90;;;;;;5096784;28;20012;-91
2022/08/29 09:07:09;;;;;;;3.55;1.58;;;16.60;99.90;;;;;;5092915;28;20104;-91
2022/08/29 09:10:01;;;;;;;4.10;1.55;;;16.70;99.90;;;;;;5095239;28;20032;-90
2022/08/29 09:12:39;;;;;;;4.20;1.30;;;16.70;99.90;;;;;;5096998;28;20036;-90
2022/08/29 09:15:16;;;;;;;4.88;1.63;;;16.70;99.90;;;;;;5095815;28;20092;-90
2022/08/29 09:17:56;;;;;;;8.45;2.70;;;16.70;99.90;;;;;;5096812;28;20028;-89
2022/08/29 09:20:29;;;;;;;7.53;1.65;;;16.70;99.90;;;;;;5096782;28;20008;-90
2022/08/29 09:23:01;;;;;;;4.63;1.40;;;16.80;99.90;;;;;;5095334;28;20088;-89
2022/08/29 09:25:29;;;;;;;6.57;2.08;;;16.80;99.90;;;;;;5097008;28;20036;-89
2022/08/29 09:27:58;;;;;;;5.97;1.63;;;16.80;99.90;;;;;;5102415;28;20020;-90
2022/08/29 09:30:28;;;;;;;3.75;1.35;;;16.90;99.90;;;;;;5095210;28;20028;-90
2022/08/29 09:33:03;;;;;;;4.43;1.50;;;17.00;99.90;;;;;;5091711;28;20040;-89
2022/08/29 09:35:45;;;;;;;4.50;1.40;;;17.00;99.90;;;;;;5097963;28;20036;-91
2022/08/29 09:38:20;;;;;;;3.30;1.58;;;17.10;99.90;;;;;;5108661;28;20024;-88
2022/08/29 09:40:54;;;;;;;5.45;1.70;;;17.10;99.90;;;;;;5092645;28;20019;-94
2022/08/29 09:43:42;;;;;;;4.43;1.35;;;17.20;99.90;;;;;;5091145;28;20067;-92
2022/08/29 09:46:20;;;;;;;9.60;1.50;;;17.30;99.90;;;;;;5085741;28;20874;-94
2022/08/29 09:48:52;;;;;;;2.38;1.25;;;17.30;99.90;;;;;;5085409;28;20024;-94
2022/08/29 09:51:34;;;;;;;5.00;1.85;;;17.40;99.90;;;;;;5093624;28;20055;-96
2022/08/29 09:54:12;;;;;;;6.35;1.40;;;17.30;99.90;;;;;;5093043;28;20084;-89
2022/08/29 09:56:47;;;;;;;3.20;1.58;;;17.40;99.90;;;;;;5094425;28;20048;-94
2022/08/29 09:59:40;;;;;;;3.63;1.48;;;17.40;99.90;;;;;;5094370;28;20029;-92
2022/08/29 10:02:23;;;;;;;5.60;1.60;;;17.40;99.90;;;;;;5090758;28;20025;-92
2022/08/29 10:05:04;;;;;;;5.05;1.60;;;17.40;99.90;;;;;;5088806;28;20054;-92
2022/08/29 10:07:47;;;;;;;3.60;2.08;;;17.40;99.90;;;;;;5088746;28;20027;-93
2022/08/29 10:10:23;;;;;;;4.22;1.73;;;17.30;99.90;;;;;;5086335;28;20028;-92
2022/08/29 10:13:16;;;;;;;2.50;1.70;;;17.20;99.90;;;;;;5080663;28;20038;-93
2022/08/29 10:16:11;;;;;;;2.03;1.42;;;17.20;99.90;;;;;;5083506;28;20032;-94
2022/08/29 10:18:51;;;;;;;1.50;1.40;;;17.20;99.90;;;;;;5076938;28;20025;-95
2022/08/29 10:21:55;;;;;;;4.70;1.70;;;17.20;99.90;;;;;;5087106;28;20008;-94
2022/08/29 10:24:37;;;;;;;11.75;1.70;;;17.20;99.90;;;;;;5085707;28;20025;-95
2022/08/29 10:27:26;;;;;;;3.00;1.90;;;17.20;99.90;;;;;;5084509;28;20024;-96
2022/08/29 10:30:01;;;;;;;4.85;1.75;;;17.10;99.90;;;;;;5081261;28;20024;-94
2022/08/29 10:32:52;;;;;;;4.10;1.50;;;17.20;99.90;;;;;;5088417;28;20024;-93
2022/08/29 10:35:42;;;;;;;7.03;1.75;;;17.20;99.90;;;;;;5088368;28;20033;-94
2022/08/29 10:38:26;;;;;;;7.68;1.73;;;17.20;99.90;;;;;;5087773;28;20028;-92
2022/08/29 10:40:57;;;;;;;5.25;1.27;;;17.20;99.90;;;;;;5090688;28;20032;-94
2022/08/29 10:43:31;;;;;;;1.75;1.13;;;17.30;99.90;;;;;;5078634;28;20025;-93
2022/08/29 10:46:31;;;;;;;1.55;0.98;;;17.40;99.90;;;;;;5072380;28;20017;-92
2022/08/29 10:49:15;;;;;;;3.22;1.00;;;17.50;99.90;;;;;;5075062;28;20031;-92
2022/08/29 10:52:02;;;;;;;3.20;1.10;;;17.60;99.90;;;;;;5070830;28;20524;-95
2022/08/29 10:54:48;;;;;;;2.20;1.10;;;17.70;99.90;;;;;;5064293;28;20037;-90
2022/08/29 10:57:32;;;;;;;5.82;1.05;;;17.70;99.90;;;;;;5054846;28;20025;-90
2022/08/29 11:00:15;;;;;;;3.03;1.10;;;17.60;99.90;;;;;;5067513;28;20028;-91
2022/08/29 11:03:26;;;;;;;3.00;1.00;;;17.60;99.90;;;;;;5056459;28;20028;-92
2022/08/29 11:06:00;;;;;;;1.48;1.02;;;17.60;99.90;;;;;;5059546;28;20052;-91
2022/08/29 11:09:00;;;;;;;3.25;1.00;;;17.50;99.90;;;;;;5058892;28;20033;-91
2022/08/29 11:11:29;;;;;;;1.25;1.02;;;17.50;99.90;;;;;;5071893;28;20143;-92
2022/08/29 11:14:01;;;;;;;3.25;1.08;;;17.50;99.90;;;;;;5061962;28;20067;-89
2022/08/29 11:16:48;;;;;;;1.73;1.00;;;17.50;99.90;;;;;;5078714;28;20013;-92
2022/08/29 11:19:22;;;;;;;2.33;1.10;;;17.50;99.90;;;;;;5086284;28;20037;-91
2022/08/29 11:22:14;;;;;;;2.47;1.15;;;17.50;99.90;;;;;;5067994;28;20035;-91
2022/08/29 11:24:42;;;;;;;1.55;1.13;;;17.50;99.90;;;;;;5079885;28;20048;-90
2022/08/29 11:27:33;;;;;;;2.15;1.20;;;17.60;99.90;;;;;;5073831;28;20035;-93
2022/08/29 11:30:09;;;;;;;3.83;1.30;;;17.60;99.90;;;;;;5069554;28;20183;-91
2022/08/29 11:32:38;;;;;;;2.13;1.33;;;17.70;99.90;;;;;;5085813;28;20025;-92
2022/08/29 11:35:10;;;;;;;2.53;1.30;;;17.70;99.90;;;;;;5071674;28;20039;-90
2022/08/29 11:38:18;;;;;;;5.33;1.67;;;17.90;99.90;;;;;;5078474;28;20029;-92
2022/08/29 11:41:02;;;;;;;3.05;1.02;;;18.00;99.90;;;;;;5073249;28;20028;-91
2022/08/29 11:43:37;;;;;;;2.85;1.10;;;18.10;99.90;;;;;;5062284;28;20017;-92
2022/08/29 11:46:05;;;;;;;1.55;1.10;;;18.30;99.90;;;;;;5067025;28;20239;-92
2022/08/29 11:48:34;;;;;;;3.53;0.85;;;18.40;99.90;;;;;;5086631;28;20012;-93
2022/08/29 11:51:36;;;;;;;2.33;1.20;;;18.50;99.90;;;;;;5075170;28;20025;-91
2022/08/29 11:54:23;;;;;;;2.03;0.90;;;18.60;99.90;;;;;;5073043;28;20044;-92
2022/08/29 11:57:15;;;;;;;2.13;0.98;;;18.90;99.90;;;;;;5073431;28;20013;-92
2022/08/29 11:59:47;;;;;;;1.17;0.77;;;19.20;99.90;;;;;;5066674;28;20070;-93
2022/08/29 12:02:40;;;;;;;2.47;0.70;;;19.30;99.90;;;;;;5077477;28;20088;-93
2022/08/29 12:05:15;;;;;;;1.55;0.93;;;19.30;99.90;;;;;;5084833;28;20056;-93
2022/08/29 12:08:03;;;;;;;0.95;0.75;;;19.30;99.90;;;;;;5080044;28;20028;-91
2022/08/29 12:10:49;;;;;;;1.75;0.77;;;19.20;99.90;;;;;;5073607;28;20086;-94
2022/08/29 12:13:44;;;;;;;0.50;0.50;;;19.10;99.90;;;;;;5074927;28;20138;-93
2022/08/29 12:16:27;;;;;;;2.28;0.73;;;19.10;99.90;;;;;;5073784;28;20038;-93
2022/08/29 12:18:55;;;;;;;2.38;0.60;;;19.10;99.90;;;;;;5073905;28;20028;-93
2022/08/29 12:21:38;;;;;;;0.98;0.85;;;19.10;99.90;;;;;;5073227;28;20012;-92
2022/08/29 12:24:28;;;;;;;0.90;0.80;;;19.10;99.90;;;;;;5073066;28;20067;-91
2022/08/29 12:26:54;;;;;;;3.95;0.95;;;19.00;99.90;;;;;;5072270;28;20029;-92
2022/08/29 12:29:32;;;;;;;2.85;0.90;;;18.90;99.90;;;;;;5075636;28;20107;-92
2022/08/29 12:32:32;;;;;;;1.88;1.17;;;18.90;99.90;;;;;;5058712;28;20036;-94
2022/08/29 12:35:07;;;;;;;1.48;0.73;;;18.90;99.90;;;;;;5080774;28;20048;-92
2022/08/29 12:37:45;;;;;;;2.33;1.00;;;18.90;99.90;;;;;;5084787;28;20027;-93
2022/08/29 12:40:16;;;;;;;1.50;0.85;;;18.90;99.90;;;;;;5080378;28;20043;-92
2022/08/29 12:43:12;;;;;;;1.30;0.80;;;18.80;99.90;;;;;;5082524;28;20032;-94
2022/08/29 12:45:42;;;;;;;1.25;0.82;;;18.70;99.90;;;;;;5074248;28;20048;-94
2022/08/29 12:48:23;;;;;;;1.90;0.90;;;18.80;99.90;;;;;;5078076;28;20090;-93
2022/08/29 12:50:49;;;;;;;3.10;0.70;;;19.00;99.90;;;;;;5076730;28;20020;-92
2022/08/29 12:53:26;;;;;;;1.83;0.77;;;19.10;99.90;;;;;;5076041;28;20028;-94
2022/08/29 12:56:12;;;;;;;1.60;0.50;;;19.30;99.90;;;;;;5082039;28;20020;-93
2022/08/29 12:58:45;;;;;;;1.05;0.52;;;19.50;99.90;;;;;;5075279;28;20070;-92
2022/08/29 13:01:29;;;;;;;0.50;0.40;;;19.70;99.90;;;;;;5084647;28;20504;-94
2022/08/29 13:04:01;;;;;;;1.50;0.50;;;19.90;99.90;;;;;;5076879;28;20032;-94
2022/08/29 13:06:27;;;;;;;1.73;0.60;;;20.00;99.20;;;;;;5076712;28;20017;-93